sensor_id;sensor_type;location;lat;lon;timestamp;temperature;humidity
33699;DHT22;20032;52.436;13.312;2023-04-21T00:00:12;12.00;99.90
33699;DHT22;20032;52.436;13.312;2023-04-21T00:02:38;12.00;99.90
33699;DHT22;20032;52.436;13.312;2023-04-21T00:05:05;12.00;99.90
33699;DHT22;20032;52.436;13.312;2023-04-21T00:07:31;12.00;99.90
33699;DHT22;20032;52.436;13.312;2023-04-21T00:09:58;12.00;99.90
33699;DHT22;20032;52.436;13.312;2023-04-21T00:12:23;12.00;99.90
33699;DHT22;20032;52.436;13.312;2023-04-21T00:14:49;11.90;99.90
33699;DHT22;20032;52.436;13.312;2023-04-21T00:17:14;11.90;99.90
33699;DHT22;20032;52.436;13.312;2023-04-21T00:19:41;12.00;99.90
33699;DHT22;20032;52.436;13.312;2023-04-21T00:22:06;12.00;99.90
33699;DHT22;20032;52.436;13.312;2023-04-21T00:24:36;11.90;99.90
33699;DHT22;20032;52.436;13.312;2023-04-21T00:27:02;11.90;99.90
33699;DHT22;20032;52.436;13.312;2023-04-21T00:29:27;11.90;99.90
33699;DHT22;20032;52.436;13.312;2023-04-21T00:31:53;11.90;99.90
33699;DHT22;20032;52.436;13.312;2023-04-21T00:34:18;11.80;99.90
33699;DHT22;20032;52.436;13.312;2023-04-21T00:36:44;11.90;99.90
33699;DHT22;20032;52.436;13.312;2023-04-21T00:39:09;11.90;99.90
33699;DHT22;20032;52.436;13.312;2023-04-21T00:41:35;11.90;99.90
33699;DHT22;20032;52.436;13.312;2023-04-21T00:44:03;11.90;99.90
33699;DHT22;20032;52.436;13.312;2023-04-21T00:46:28;11.90;99.90
33699;DHT22;20032;52.436;13.312;2023-04-21T00:48:54;11.90;99.90
33699;DHT22;20032;52.436;13.312;2023-04-21T00:51:20;11.90;99.90
33699;DHT22;20032;52.436;13.312;2023-04-21T00:53:46;11.80;99.90
33699;DHT22;20032;52.436;13.312;2023-04-21T00:56:12;11.80;99.90
33699;DHT22;20032;52.436;13.312;2023-04-21T00:58:40;11.70;99.90
33699;DHT22;20032;52.436;13.312;2023-04-21T01:01:06;11.70;99.90
33699;DHT22;20032;52.436;13.312;2023-04-21T01:03:32;11.70;99.90
33699;DHT22;20032;52.436;13.312;2023-04-21T01:05:58;11.70;99.90
33699;DHT22;20032;52.436;13.312;2023-04-21T01:08:23;11.70;99.90
33699;DHT22;20032;52.436;13.312;2023-04-21T01:10:49;11.60;99.90
33699;DHT22;20032;52.436;13.312;2023-04-21T01:13:14;11.50;99.90
33699;DHT22;20032;52.436;13.312;2023-04-21T01:15:43;11.50;99.90
33699;DHT22;20032;52.436;13.312;2023-04-21T01:18:08;11.50;99.90
33699;DHT22;20032;52.436;13.312;2023-04-21T01:20:34;11.50;99.90
33699;DHT22;20032;52.436;13.312;2023-04-21T01:23:00;11.50;99.90
33699;DHT22;20032;52.436;13.312;2023-04-21T01:25:25;11.40;99.90
33699;DHT22;20032;52.436;13.312;2023-04-21T01:27:52;11.40;99.90
33699;DHT22;20032;52.436;13.312;2023-04-21T01:30:18;11.30;99.90
33699;DHT22;20032;52.436;13.312;2023-04-21T01:32:43;11.30;99.90
33699;DHT22;20032;52.436;13.312;2023-04-21T01:35:09;11.30;99.90
33699;DHT22;20032;52.436;13.312;2023-04-21T01:37:35;11.20;99.90
33699;DHT22;20032;52.436;13.312;2023-04-21T01:40:03;11.20;99.90
33699;DHT22;20032;52.436;13.312;2023-04-21T01:42:32;11.20;99.90
33699;DHT22;20032;52.436;13.312;2023-04-21T01:44:59;11.10;99.90
33699;DHT22;20032;52.436;13.312;2023-04-21T01:47:24;11.10;99.90
33699;DHT22;20032;52.436;13.312;2023-04-21T01:49:51;11.10;99.90
33699;DHT22;20032;52.436;13.312;2023-04-21T01:52:17;11.10;99.90
33699;DHT22;20032;52.436;13.312;2023-04-21T01:54:42;11.10;99.90
33699;DHT22;20032;52.436;13.312;2023-04-21T01:57:08;11.00;99.90
33699;DHT22;20032;52.436;13.312;2023-04-21T01:59:33;10.90;99.90
33699;DHT22;20032;52.436;13.312;2023-04-21T02:01:59;10.90;99.90
33699;DHT22;20032;52.436;13.312;2023-04-21T02:04:24;10.90;99.90
33699;DHT22;20032;52.436;13.312;2023-04-21T02:06:50;10.90;99.90
33699;DHT22;20032;52.436;13.312;2023-04-21T02:09:15;10.90;99.90
33699;DHT22;20032;52.436;13.312;2023-04-21T02:11:41;10.90;99.90
33699;DHT22;20032;52.436;13.312;2023-04-21T02:14:07;10.80;99.90
33699;DHT22;20032;52.436;13.312;2023-04-21T02:16:32;10.80;99.90
33699;DHT22;20032;52.436;13.312;2023-04-21T02:18:59;10.80;99.90
33699;DHT22;20032;52.436;13.312;2023-04-21T02:21:24;10.80;99.90
33699;DHT22;20032;52.436;13.312;2023-04-21T02:23:51;10.80;99.90
33699;DHT22;20032;52.436;13.312;2023-04-21T02:26:17;10.80;99.90
33699;DHT22;20032;52.436;13.312;2023-04-21T02:28:43;10.70;99.90
33699;DHT22;20032;52.436;13.312;2023-04-21T02:31:08;10.70;99.90
33699;DHT22;20032;52.436;13.312;2023-04-21T02:33:34;10.70;99.90
33699;DHT22;20032;52.436;13.312;2023-04-21T02:35:59;10.70;99.90
33699;DHT22;20032;52.436;13.312;2023-04-21T02:38:25;10.60;99.90
33699;DHT22;20032;52.436;13.312;2023-04-21T02:40:50;10.70;99.90
33699;DHT22;20032;52.436;13.312;2023-04-21T02:43:16;10.60;99.90
33699;DHT22;20032;52.436;13.312;2023-04-21T02:45:42;10.70;99.90
33699;DHT22;20032;52.436;13.312;2023-04-21T02:48:07;10.60;99.90
33699;DHT22;20032;52.436;13.312;2023-04-21T02:50:33;10.60;99.90
33699;DHT22;20032;52.436;13.312;2023-04-21T02:52:58;10.60;99.90
33699;DHT22;20032;52.436;13.312;2023-04-21T02:55:24;10.60;99.90
33699;DHT22;20032;52.436;13.312;2023-04-21T02:57:49;10.50;99.90
33699;DHT22;20032;52.436;13.312;2023-04-21T03:00:15;10.50;99.90
33699;DHT22;20032;52.436;13.312;2023-04-21T03:02:41;10.50;99.90
33699;DHT22;20032;52.436;13.312;2023-04-21T03:05:06;10.50;99.90
33699;DHT22;20032;52.436;13.312;2023-04-21T03:07:33;10.50;99.90
33699;DHT22;20032;52.436;13.312;2023-04-21T03:09:58;10.50;99.90
33699;DHT22;20032;52.436;13.312;2023-04-21T03:12:24;10.50;99.90
33699;DHT22;20032;52.436;13.312;2023-04-21T03:14:49;10.40;99.90
33699;DHT22;20032;52.436;13.312;2023-04-21T03:17:14;10.40;99.90
33699;DHT22;20032;52.436;13.312;2023-04-21T03:19:40;10.40;99.90
33699;DHT22;20032;52.436;13.312;2023-04-21T03:22:05;10.40;99.90
33699;DHT22;20032;52.436;13.312;2023-04-21T03:24:31;10.40;99.90
33699;DHT22;20032;52.436;13.312;2023-04-21T03:26:57;10.40;99.90
33699;DHT22;20032;52.436;13.312;2023-04-21T03:29:22;10.30;99.90
33699;DHT22;20032;52.436;13.312;2023-04-21T03:31:48;10.30;99.90
33699;DHT22;20032;52.436;13.312;2023-04-21T03:34:13;10.20;99.90
33699;DHT22;20032;52.436;13.312;2023-04-21T03:36:39;10.20;99.90
33699;DHT22;20032;52.436;13.312;2023-04-21T03:39:05;10.20;99.90
33699;DHT22;20032;52.436;13.312;2023-04-21T03:41:32;10.20;99.90
33699;DHT22;20032;52.436;13.312;2023-04-21T03:43:58;10.20;99.90
33699;DHT22;20032;52.436;13.312;2023-04-21T03:46:23;10.10;99.90
33699;DHT22;20032;52.436;13.312;2023-04-21T03:48:49;10.10;99.90
33699;DHT22;20032;52.436;13.312;2023-04-21T03:51:15;10.10;99.90
33699;DHT22;20032;52.436;13.312;2023-04-21T03:53:40;10.10;99.90
33699;DHT22;20032;52.436;13.312;2023-04-21T03:56:06;10.10;99.90
33699;DHT22;20032;52.436;13.312;2023-04-21T03:58:32;10.10;99.90
33699;DHT22;20032;52.436;13.312;2023-04-21T04:00:58;10.10;99.90
33699;DHT22;20032;52.436;13.312;2023-04-21T04:03:23;10.10;99.90
33699;DHT22;20032;52.436;13.312;2023-04-21T04:05:49;10.10;99.90
33699;DHT22;20032;52.436;13.312;2023-04-21T04:08:14;10.00;99.90
33699;DHT22;20032;52.436;13.312;2023-04-21T04:10:40;10.00;99.90
33699;DHT22;20032;52.436;13.312;2023-04-21T04:13:06;9.90;99.90
33699;DHT22;20032;52.436;13.312;2023-04-21T04:15:32;10.00;99.90
33699;DHT22;20032;52.436;13.312;2023-04-21T04:17:57;10.00;99.90
33699;DHT22;20032;52.436;13.312;2023-04-21T04:20:23;10.00;99.90
33699;DHT22;20032;52.436;13.312;2023-04-21T04:22:48;10.00;99.90
33699;DHT22;20032;52.436;13.312;2023-04-21T04:25:14;10.00;99.90
33699;DHT22;20032;52.436;13.312;2023-04-21T04:27:41;9.90;99.90
33699;DHT22;20032;52.436;13.312;2023-04-21T04:30:08;10.00;99.90
33699;DHT22;20032;52.436;13.312;2023-04-21T04:32:34;10.00;99.90
33699;DHT22;20032;52.436;13.312;2023-04-21T04:35:02;10.00;99.90
33699;DHT22;20032;52.436;13.312;2023-04-21T04:37:28;10.00;99.90
33699;DHT22;20032;52.436;13.312;2023-04-21T04:39:53;10.00;99.90
33699;DHT22;20032;52.436;13.312;2023-04-21T04:42:19;10.00;99.90
33699;DHT22;20032;52.436;13.312;2023-04-21T04:44:45;10.00;99.90
33699;DHT22;20032;52.436;13.312;2023-04-21T04:47:11;10.00;99.90
33699;DHT22;20032;52.436;13.312;2023-04-21T04:49:37;10.00;99.90
33699;DHT22;20032;52.436;13.312;2023-04-21T04:52:02;10.10;99.90
33699;DHT22;20032;52.436;13.312;2023-04-21T04:54:28;10.00;99.90
33699;DHT22;20032;52.436;13.312;2023-04-21T04:56:54;10.00;99.90
33699;DHT22;20032;52.436;13.312;2023-04-21T04:59:20;10.10;99.90
33699;DHT22;20032;52.436;13.312;2023-04-21T05:01:45;10.10;99.90
33699;DHT22;20032;52.436;13.312;2023-04-21T05:04:10;10.10;99.90
33699;DHT22;20032;52.436;13.312;2023-04-21T05:06:40;10.10;99.90
33699;DHT22;20032;52.436;13.312;2023-04-21T05:09:06;10.10;99.90
33699;DHT22;20032;52.436;13.312;2023-04-21T05:11:31;10.10;99.90
33699;DHT22;20032;52.436;13.312;2023-04-21T05:13:57;10.20;99.90
33699;DHT22;20032;52.436;13.312;2023-04-21T05:16:22;10.20;99.90
33699;DHT22;20032;52.436;13.312;2023-04-21T05:18:48;10.30;99.90
33699;DHT22;20032;52.436;13.312;2023-04-21T05:21:25;10.30;99.90
33699;DHT22;20032;52.436;13.312;2023-04-21T05:23:52;10.40;99.90
33699;DHT22;20032;52.436;13.312;2023-04-21T05:26:18;10.40;99.90
33699;DHT22;20032;52.436;13.312;2023-04-21T05:28:44;10.50;99.90
33699;DHT22;20032;52.436;13.312;2023-04-21T05:31:09;10.50;99.90
33699;DHT22;20032;52.436;13.312;2023-04-21T05:33:35;10.50;99.90
33699;DHT22;20032;52.436;13.312;2023-04-21T05:36:00;10.60;99.90
33699;DHT22;20032;52.436;13.312;2023-04-21T05:38:29;10.60;99.90
33699;DHT22;20032;52.436;13.312;2023-04-21T05:40:55;10.70;99.90
33699;DHT22;20032;52.436;13.312;2023-04-21T05:43:21;10.70;99.90
33699;DHT22;20032;52.436;13.312;2023-04-21T05:45:47;10.70;99.90
33699;DHT22;20032;52.436;13.312;2023-04-21T05:48:14;10.80;99.90
33699;DHT22;20032;52.436;13.312;2023-04-21T05:50:40;10.90;99.90
33699;DHT22;20032;52.436;13.312;2023-04-21T05:53:06;11.00;99.90
33699;DHT22;20032;52.436;13.312;2023-04-21T05:55:34;11.00;99.90
33699;DHT22;20032;52.436;13.312;2023-04-21T05:57:59;11.10;99.90
33699;DHT22;20032;52.436;13.312;2023-04-21T06:00:25;11.10;99.90
33699;DHT22;20032;52.436;13.312;2023-04-21T06:02:51;11.20;99.90
33699;DHT22;20032;52.436;13.312;2023-04-21T06:05:16;11.30;99.90
33699;DHT22;20032;52.436;13.312;2023-04-21T06:07:42;11.30;99.90
33699;DHT22;20032;52.436;13.312;2023-04-21T06:10:08;11.30;99.90
33699;DHT22;20032;52.436;13.312;2023-04-21T06:12:33;11.30;99.90
33699;DHT22;20032;52.436;13.312;2023-04-21T06:14:59;11.40;99.90
33699;DHT22;20032;52.436;13.312;2023-04-21T06:17:24;11.50;99.90
33699;DHT22;20032;52.436;13.312;2023-04-21T06:19:50;11.50;99.90
33699;DHT22;20032;52.436;13.312;2023-04-21T06:22:19;11.50;99.90
33699;DHT22;20032;52.436;13.312;2023-04-21T06:24:45;11.60;99.90
33699;DHT22;20032;52.436;13.312;2023-04-21T06:27:11;11.70;99.90
33699;DHT22;20032;52.436;13.312;2023-04-21T06:29:37;11.70;99.90
33699;DHT22;20032;52.436;13.312;2023-04-21T06:32:03;11.80;99.90
33699;DHT22;20032;52.436;13.312;2023-04-21T06:34:28;11.90;99.90
33699;DHT22;20032;52.436;13.312;2023-04-21T06:36:54;11.90;99.90
33699;DHT22;20032;52.436;13.312;2023-04-21T06:39:19;12.00;99.90
33699;DHT22;20032;52.436;13.312;2023-04-21T06:41:45;12.10;99.90
33699;DHT22;20032;52.436;13.312;2023-04-21T06:44:10;12.20;99.90
33699;DHT22;20032;52.436;13.312;2023-04-21T06:46:39;12.30;99.90
33699;DHT22;20032;52.436;13.312;2023-04-21T06:49:07;12.40;99.90
33699;DHT22;20032;52.436;13.312;2023-04-21T06:51:32;12.40;99.90
33699;DHT22;20032;52.436;13.312;2023-04-21T06:53:58;12.50;99.90
33699;DHT22;20032;52.436;13.312;2023-04-21T06:56:26;12.60;99.90
33699;DHT22;20032;52.436;13.312;2023-04-21T06:58:51;12.70;99.90
33699;DHT22;20032;52.436;13.312;2023-04-21T07:01:17;12.70;99.90
33699;DHT22;20032;52.436;13.312;2023-04-21T07:03:43;12.80;99.90
33699;DHT22;20032;52.436;13.312;2023-04-21T07:06:08;12.90;99.90
33699;DHT22;20032;52.436;13.312;2023-04-21T07:08:34;13.00;99.90
33699;DHT22;20032;52.436;13.312;2023-04-21T07:10:59;13.10;99.90
33699;DHT22;20032;52.436;13.312;2023-04-21T07:13:25;13.10;99.90
33699;DHT22;20032;52.436;13.312;2023-04-21T07:15:50;13.20;99.90
33699;DHT22;20032;52.436;13.312;2023-04-21T07:18:16;13.30;99.90
33699;DHT22;20032;52.436;13.312;2023-04-21T07:20:42;13.30;99.90
33699;DHT22;20032;52.436;13.312;2023-04-21T07:23:07;13.40;99.90
33699;DHT22;20032;52.436;13.312;2023-04-21T07:25:33;13.50;99.90
33699;DHT22;20032;52.436;13.312;2023-04-21T07:27:58;13.60;99.90
33699;DHT22;20032;52.436;13.312;2023-04-21T07:30:24;13.60;99.90
33699;DHT22;20032;52.436;13.312;2023-04-21T07:32:50;13.70;99.90
33699;DHT22;20032;52.436;13.312;2023-04-21T07:35:16;13.80;99.90
33699;DHT22;20032;52.436;13.312;2023-04-21T07:37:41;13.90;99.90
33699;DHT22;20032;52.436;13.312;2023-04-21T07:40:08;14.10;99.90
33699;DHT22;20032;52.436;13.312;2023-04-21T07:42:34;14.20;99.90
33699;DHT22;20032;52.436;13.312;2023-04-21T07:45:00;14.40;99.90
33699;DHT22;20032;52.436;13.312;2023-04-21T07:47:27;14.40;99.90
33699;DHT22;20032;52.436;13.312;2023-04-21T07:49:52;14.60;99.90
33699;DHT22;20032;52.436;13.312;2023-04-21T07:52:18;14.70;99.90
33699;DHT22;20032;52.436;13.312;2023-04-21T07:54:44;14.80;99.90
33699;DHT22;20032;52.436;13.312;2023-04-21T07:57:09;14.90;99.90
33699;DHT22;20032;52.436;13.312;2023-04-21T07:59:35;14.90;99.90
33699;DHT22;20032;52.436;13.312;2023-04-21T08:02:02;15.00;99.90
33699;DHT22;20032;52.436;13.312;2023-04-21T08:04:27;15.10;99.90
33699;DHT22;20032;52.436;13.312;2023-04-21T08:06:52;15.20;99.90
33699;DHT22;20032;52.436;13.312;2023-04-21T08:09:18;15.30;99.90
33699;DHT22;20032;52.436;13.312;2023-04-21T08:11:43;15.40;99.90
33699;DHT22;20032;52.436;13.312;2023-04-21T08:14:09;15.50;99.90
33699;DHT22;20032;52.436;13.312;2023-04-21T08:16:36;15.50;99.90
33699;DHT22;20032;52.436;13.312;2023-04-21T08:19:03;15.60;99.90
33699;DHT22;20032;52.436;13.312;2023-04-21T08:21:28;15.70;99.90
33699;DHT22;20032;52.436;13.312;2023-04-21T08:23:54;15.70;99.90
33699;DHT22;20032;52.436;13.312;2023-04-21T08:26:21;15.90;99.90
33699;DHT22;20032;52.436;13.312;2023-04-21T08:28:47;16.00;99.90
33699;DHT22;20032;52.436;13.312;2023-04-21T08:31:14;16.10;99.90
33699;DHT22;20032;52.436;13.312;2023-04-21T08:33:40;16.20;99.90
33699;DHT22;20032;52.436;13.312;2023-04-21T08:36:06;16.30;99.90
33699;DHT22;20032;52.436;13.312;2023-04-21T08:38:32;16.50;99.90
33699;DHT22;20032;52.436;13.312;2023-04-21T08:40:58;16.60;99.90
33699;DHT22;20032;52.436;13.312;2023-04-21T08:43:24;16.70;99.90
33699;DHT22;20032;52.436;13.312;2023-04-21T08:45:51;16.70;99.90
33699;DHT22;20032;52.436;13.312;2023-04-21T08:48:20;16.80;99.90
33699;DHT22;20032;52.436;13.312;2023-04-21T08:50:50;16.90;99.90
33699;DHT22;20032;52.436;13.312;2023-04-21T08:53:16;17.00;99.90
33699;DHT22;20032;52.436;13.312;2023-04-21T08:55:42;17.10;99.90
33699;DHT22;20032;52.436;13.312;2023-04-21T08:58:08;17.20;99.90
33699;DHT22;20032;52.436;13.312;2023-04-21T09:00:35;17.20;99.90
33699;DHT22;20032;52.436;13.312;2023-04-21T09:03:01;17.40;99.90
33699;DHT22;20032;52.436;13.312;2023-04-21T09:05:29;17.60;99.90
33699;DHT22;20032;52.436;13.312;2023-04-21T09:08:07;17.70;99.90
33699;DHT22;20032;52.436;13.312;2023-04-21T09:10:41;17.80;99.90
33699;DHT22;20032;52.436;13.312;2023-04-21T09:13:07;17.80;99.90
33699;DHT22;20032;52.436;13.312;2023-04-21T09:15:45;17.90;99.90
33699;DHT22;20032;52.436;13.312;2023-04-21T09:18:16;18.00;99.90
33699;DHT22;20032;52.436;13.312;2023-04-21T09:20:43;18.20;99.90
33699;DHT22;20032;52.436;13.312;2023-04-21T09:23:12;18.40;99.90
33699;DHT22;20032;52.436;13.312;2023-04-21T09:25:39;18.60;99.90
33699;DHT22;20032;52.436;13.312;2023-04-21T09:28:07;18.80;99.20
33699;DHT22;20032;52.436;13.312;2023-04-21T09:30:37;19.00;99.20
33699;DHT22;20032;52.436;13.312;2023-04-21T09:33:03;19.00;99.10
33699;DHT22;20032;52.436;13.312;2023-04-21T09:35:32;19.30;99.90
33699;DHT22;20032;52.436;13.312;2023-04-21T09:38:00;19.40;97.90
33699;DHT22;20032;52.436;13.312;2023-04-21T09:40:28;19.70;98.40
33699;DHT22;20032;52.436;13.312;2023-04-21T09:42:53;19.80;97.70
33699;DHT22;20032;52.436;13.312;2023-04-21T09:45:19;19.80;97.00
33699;DHT22;20032;52.436;13.312;2023-04-21T09:47:48;19.90;98.00
33699;DHT22;20032;52.436;13.312;2023-04-21T09:50:16;20.00;98.20
33699;DHT22;20032;52.436;13.312;2023-04-21T09:52:46;20.10;95.60
33699;DHT22;20032;52.436;13.312;2023-04-21T09:55:14;19.90;96.10
33699;DHT22;20032;52.436;13.312;2023-04-21T09:57:41;20.10;96.00
33699;DHT22;20032;52.436;13.312;2023-04-21T10:00:10;20.30;96.40
33699;DHT22;20032;52.436;13.312;2023-04-21T10:02:43;20.50;95.10
33699;DHT22;20032;52.436;13.312;2023-04-21T10:05:10;20.50;93.30
33699;DHT22;20032;52.436;13.312;2023-04-21T10:07:36;20.30;93.70
33699;DHT22;20032;52.436;13.312;2023-04-21T10:10:02;20.40;94.70
33699;DHT22;20032;52.436;13.312;2023-04-21T10:12:28;20.70;95.10
33699;DHT22;20032;52.436;13.312;2023-04-21T10:14:55;20.90;94.30
33699;DHT22;20032;52.436;13.312;2023-04-21T10:17:22;21.00;94.00
33699;DHT22;20032;52.436;13.312;2023-04-21T10:19:57;21.00;92.10
33699;DHT22;20032;52.436;13.312;2023-04-21T10:22:28;21.00;92.80
33699;DHT22;20032;52.436;13.312;2023-04-21T10:24:57;21.50;92.40
33699;DHT22;20032;52.436;13.312;2023-04-21T10:27:42;21.60;93.50
33699;DHT22;20032;52.436;13.312;2023-04-21T10:30:24;21.60;91.20
33699;DHT22;20032;52.436;13.312;2023-04-21T10:33:07;21.50;91.40
33699;DHT22;20032;52.436;13.312;2023-04-21T10:35:57;21.80;91.10
33699;DHT22;20032;52.436;13.312;2023-04-21T10:38:43;21.80;89.60
33699;DHT22;20032;52.436;13.312;2023-04-21T10:41:34;21.80;90.20
33699;DHT22;20032;52.436;13.312;2023-04-21T10:46:39;22.00;88.60
33699;DHT22;20032;52.436;13.312;2023-04-21T10:49:09;22.20;89.50
33699;DHT22;20032;52.436;13.312;2023-04-21T10:56:54;22.90;88.60
33699;DHT22;20032;52.436;13.312;2023-04-21T10:59:20;23.00;85.40
33699;DHT22;20032;52.436;13.312;2023-04-21T11:01:46;23.10;86.90
33699;DHT22;20032;52.436;13.312;2023-04-21T11:04:13;23.30;85.00
33699;DHT22;20032;52.436;13.312;2023-04-21T11:06:39;23.40;85.20
33699;DHT22;20032;52.436;13.312;2023-04-21T11:09:05;23.50;84.70
33699;DHT22;20032;52.436;13.312;2023-04-21T11:11:31;23.30;82.30
33699;DHT22;20032;52.436;13.312;2023-04-21T11:13:59;23.00;83.80
33699;DHT22;20032;52.436;13.312;2023-04-21T11:16:25;23.30;83.40
33699;DHT22;20032;52.436;13.312;2023-04-21T11:18:51;23.30;82.20
33699;DHT22;20032;52.436;13.312;2023-04-21T11:21:17;23.40;81.20
33699;DHT22;20032;52.436;13.312;2023-04-21T11:23:49;24.10;80.90
33699;DHT22;20032;52.436;13.312;2023-04-21T11:26:15;24.10;78.80
33699;DHT22;20032;52.436;13.312;2023-04-21T11:28:41;24.00;80.20
33699;DHT22;20032;52.436;13.312;2023-04-21T11:31:07;24.10;79.10
33699;DHT22;20032;52.436;13.312;2023-04-21T11:33:37;24.00;78.60
33699;DHT22;20032;52.436;13.312;2023-04-21T11:36:04;24.20;78.20
33699;DHT22;20032;52.436;13.312;2023-04-21T11:38:45;24.50;79.20
33699;DHT22;20032;52.436;13.312;2023-04-21T11:41:11;24.40;75.80
33699;DHT22;20032;52.436;13.312;2023-04-21T11:43:37;23.80;75.30
33699;DHT22;20032;52.436;13.312;2023-04-21T11:46:23;23.90;77.70
33699;DHT22;20032;52.436;13.312;2023-04-21T11:49:05;24.10;76.00
33699;DHT22;20032;52.436;13.312;2023-04-21T11:54:00;24.70;76.30
33699;DHT22;20032;52.436;13.312;2023-04-21T11:56:25;25.10;73.30
33699;DHT22;20032;52.436;13.312;2023-04-21T11:58:51;25.20;74.70
33699;DHT22;20032;52.436;13.312;2023-04-21T12:01:17;25.40;72.50
33699;DHT22;20032;52.436;13.312;2023-04-21T12:03:53;25.50;72.90
33699;DHT22;20032;52.436;13.312;2023-04-21T12:06:20;25.10;72.10
33699;DHT22;20032;52.436;13.312;2023-04-21T12:08:45;24.50;73.10
33699;DHT22;20032;52.436;13.312;2023-04-21T12:11:11;24.80;76.30
33699;DHT22;20032;52.436;13.312;2023-04-21T12:13:40;25.10;74.30
33699;DHT22;20032;52.436;13.312;2023-04-21T12:16:05;25.00;74.40
33699;DHT22;20032;52.436;13.312;2023-04-21T12:18:31;25.00;73.70
33699;DHT22;20032;52.436;13.312;2023-04-21T12:21:00;25.40;71.80
33699;DHT22;20032;52.436;13.312;2023-04-21T12:23:26;25.80;72.70
33699;DHT22;20032;52.436;13.312;2023-04-21T12:25:52;26.30;72.00
33699;DHT22;20032;52.436;13.312;2023-04-21T12:28:17;26.30;71.00
33699;DHT22;20032;52.436;13.312;2023-04-21T12:30:43;26.00;69.60
33699;DHT22;20032;52.436;13.312;2023-04-21T12:33:09;26.00;71.10
33699;DHT22;20032;52.436;13.312;2023-04-21T12:35:35;26.60;70.30
33699;DHT22;20032;52.436;13.312;2023-04-21T12:38:00;26.80;68.30
33699;DHT22;20032;52.436;13.312;2023-04-21T12:40:25;26.80;69.40
33699;DHT22;20032;52.436;13.312;2023-04-21T12:42:51;27.00;67.50
33699;DHT22;20032;52.436;13.312;2023-04-21T12:45:17;25.80;67.50
33699;DHT22;20032;52.436;13.312;2023-04-21T12:47:42;24.70;70.30
33699;DHT22;20032;52.436;13.312;2023-04-21T12:50:08;24.00;73.10
33699;DHT22;20032;52.436;13.312;2023-04-21T12:52:35;24.40;74.70
33699;DHT22;20032;52.436;13.312;2023-04-21T12:55:01;25.40;71.30
33699;DHT22;20032;52.436;13.312;2023-04-21T12:57:27;26.40;69.80
33699;DHT22;20032;52.436;13.312;2023-04-21T12:59:53;27.10;68.60
33699;DHT22;20032;52.436;13.312;2023-04-21T13:02:18;27.70;64.70
33699;DHT22;20032;52.436;13.312;2023-04-21T13:04:44;27.90;64.00
33699;DHT22;20032;52.436;13.312;2023-04-21T13:07:10;27.80;62.00
33699;DHT22;20032;52.436;13.312;2023-04-21T13:09:35;27.80;60.70
33699;DHT22;20032;52.436;13.312;2023-04-21T13:12:01;28.20;63.00
33699;DHT22;20032;52.436;13.312;2023-04-21T13:14:26;27.70;60.50
33699;DHT22;20032;52.436;13.312;2023-04-21T13:16:52;27.80;61.70
33699;DHT22;20032;52.436;13.312;2023-04-21T13:19:18;27.90;61.60
33699;DHT22;20032;52.436;13.312;2023-04-21T13:21:43;27.70;60.70
33699;DHT22;20032;52.436;13.312;2023-04-21T13:24:09;27.60;59.80
33699;DHT22;20032;52.436;13.312;2023-04-21T13:26:34;27.50;60.30
33699;DHT22;20032;52.436;13.312;2023-04-21T13:29:02;27.60;60.70
33699;DHT22;20032;52.436;13.312;2023-04-21T13:31:27;27.30;59.20
33699;DHT22;20032;52.436;13.312;2023-04-21T13:33:53;27.30;60.90
33699;DHT22;20032;52.436;13.312;2023-04-21T13:36:18;27.30;60.30
33699;DHT22;20032;52.436;13.312;2023-04-21T13:38:44;27.10;59.60
33699;DHT22;20032;52.436;13.312;2023-04-21T13:41:10;26.50;62.50
33699;DHT22;20032;52.436;13.312;2023-04-21T13:43:35;26.60;60.60
33699;DHT22;20032;52.436;13.312;2023-04-21T13:46:01;27.30;60.30
33699;DHT22;20032;52.436;13.312;2023-04-21T13:48:26;27.50;60.20
33699;DHT22;20032;52.436;13.312;2023-04-21T13:50:53;27.40;61.90
33699;DHT22;20032;52.436;13.312;2023-04-21T13:53:19;27.20;60.50
33699;DHT22;20032;52.436;13.312;2023-04-21T13:55:45;26.60;60.50
33699;DHT22;20032;52.436;13.312;2023-04-21T13:58:14;26.10;61.00
33699;DHT22;20032;52.436;13.312;2023-04-21T14:00:40;25.50;61.40
33699;DHT22;20032;52.436;13.312;2023-04-21T14:03:06;25.10;63.20
33699;DHT22;20032;52.436;13.312;2023-04-21T14:05:31;25.10;63.70
33699;DHT22;20032;52.436;13.312;2023-04-21T14:07:58;25.10;61.60
33699;DHT22;20032;52.436;13.312;2023-04-21T14:10:23;25.50;62.30
33699;DHT22;20032;52.436;13.312;2023-04-21T14:12:48;25.80;62.00
33699;DHT22;20032;52.436;13.312;2023-04-21T14:15:14;26.30;60.40
33699;DHT22;20032;52.436;13.312;2023-04-21T14:17:40;26.50;59.70
33699;DHT22;20032;52.436;13.312;2023-04-21T14:20:06;26.50;60.60
33699;DHT22;20032;52.436;13.312;2023-04-21T14:22:34;27.00;59.70
33699;DHT22;20032;52.436;13.312;2023-04-21T14:24:59;27.30;58.90
33699;DHT22;20032;52.436;13.312;2023-04-21T14:27:25;27.10;59.50
33699;DHT22;20032;52.436;13.312;2023-04-21T14:29:50;27.60;59.20
33699;DHT22;20032;52.436;13.312;2023-04-21T14:32:16;26.90;58.00
33699;DHT22;20032;52.436;13.312;2023-04-21T14:34:44;26.20;60.30
33699;DHT22;20032;52.436;13.312;2023-04-21T14:37:10;26.60;59.50
33699;DHT22;20032;52.436;13.312;2023-04-21T14:39:36;26.50;59.20
33699;DHT22;20032;52.436;13.312;2023-04-21T14:42:01;26.90;59.50
33699;DHT22;20032;52.436;13.312;2023-04-21T14:44:28;27.00;59.60
33699;DHT22;20032;52.436;13.312;2023-04-21T14:46:53;27.10;58.60
33699;DHT22;20032;52.436;13.312;2023-04-21T14:49:19;26.70;58.80
33699;DHT22;20032;52.436;13.312;2023-04-21T14:51:45;26.40;59.40
33699;DHT22;20032;52.436;13.312;2023-04-21T14:54:13;26.00;59.40
33699;DHT22;20032;52.436;13.312;2023-04-21T14:56:40;26.20;59.70
33699;DHT22;20032;52.436;13.312;2023-04-21T14:59:06;26.10;59.60
33699;DHT22;20032;52.436;13.312;2023-04-21T15:01:31;26.50;59.10
33699;DHT22;20032;52.436;13.312;2023-04-21T15:03:57;27.00;58.00
33699;DHT22;20032;52.436;13.312;2023-04-21T15:06:24;26.90;58.90
33699;DHT22;20032;52.436;13.312;2023-04-21T15:08:50;26.50;58.70
33699;DHT22;20032;52.436;13.312;2023-04-21T15:11:15;26.40;58.80
33699;DHT22;20032;52.436;13.312;2023-04-21T15:13:41;26.60;59.80
33699;DHT22;20032;52.436;13.312;2023-04-21T15:16:06;26.90;58.50
33699;DHT22;20032;52.436;13.312;2023-04-21T15:18:32;26.70;58.10
33699;DHT22;20032;52.436;13.312;2023-04-21T15:20:58;27.00;57.30